If you wish to contribute or participate in the discussions about articles you are invited to join SKYbrary as a registered user

 Actions

Meadows Field

From SKYbrary Wiki

KBFL
Airport
ICAO: KBFL
Summary
Name Meadows Field
Region North America
Territory United States US.gif
Location Bakersfield, California
Serving Bakersfield
Coordinates 35° 26' 16.01" N, 119° 3' 8.86" W
Runways
Designator Length Width Surface ROPS
12L/30R 3309 m10,856.299 ft
46 m150.919 ft
ASP yes/yes
12R/30L 1128 m3,700.787 ft
23 m75.459 ft
ASP yes/yes


METAR
Observation KBFL 191354Z 00000KT 10SM CLR 28/15 A2988 RMK AO2 SLP109 T02830150
Station Bakersfield, Meadows Field Airport
Date/Time 19 June 2019 13:54:00
Wind direction
Wind speed 00 kts
Lowest cloud amount n/a
Temperature 28.3°C
Dew point 15°C
Humidity 44%
QNH hPa
Weather condition n/a

LOS
Tag(s) Parallel Runway Operation

International airport located 6 km3.24 nm
6,000 m
19,685.039 ft
northwest of the central business district of Bakersfield, California. It is the primary airport serving the Greater Bakersfield metropolitan area and one of two international airports in the San Joaquin Valley.

Climatology

Hot Desert Climate (Köppen climate classification BWh)

Maps

Terrain

Loading map...

Airport Layout

Loading map...


Accidents & Serious Incidents at or in vicinity of KBFL

None on SKYbrary